Time;durP1;ratioP1;P1;durP2;ratioP2;P2;SDS_P1;SDS_P2;PMS_P1;PMS_P2;Temp;Humidity;BMP_temperature;BMP_pressure;BME280_temperature;BME280_humidity;BME280_pressure;Samples;Min_cycle;Max_cycle;Signal;HPM_P1;HPM_P2
2022/02/09 00:01:48;;;;;;;3.38;1.15;;;19.60;74.60;;;;;;5019743;28;95402;-44
2022/02/09 00:09:25;;;;;;;15.35;5.20;;;19.60;75.00;;;;;;5010235;27;97126;-42
2022/02/09 00:12:08;;;;;;;10.05;3.95;;;19.80;75.10;;;;;;5020266;27;96483;-42
2022/02/09 00:26:35;;;;;;;8.45;2.50;;;20.30;73.30;;;;;;5022619;27;95432;-42
2022/02/09 00:34:22;;;;;;;4.95;2.85;;;20.40;73.20;;;;;;5019070;28;95752;-42
2022/02/09 00:37:28;;;;;;;6.45;2.10;;;20.50;72.40;;;;;;5021943;27;95228;-42
2022/02/09 00:43:33;;;;;;;5.95;2.20;;;20.70;71.40;;;;;;5018807;28;97054;-41
2022/02/09 01:57:50;;;;;;;2.85;0.98;;;21.90;63.40;;;;;;5017446;28;96559;-43
2022/02/09 02:00:22;;;;;;;2.10;1.10;;;21.80;64.40;;;;;;4990647;28;96661;-42
2022/02/09 02:02:58;;;;;;;2.50;0.98;;;21.70;64.50;;;;;;5017276;27;95871;-43
2022/02/09 02:05:29;;;;;;;3.23;1.00;;;21.70;64.80;;;;;;5018193;27;96852;-43
2022/02/09 02:08:01;;;;;;;3.10;0.90;;;21.60;65.70;;;;;;5012996;27;97262;-42
2022/02/09 02:10:50;;;;;;;2.78;0.95;;;21.70;65.70;;;;;;5019455;27;95692;-43
2022/02/09 02:18:54;;;;;;;1.25;0.77;;;21.60;66.10;;;;;;5021538;28;96996;-44
2022/02/09 02:21:47;;;;;;;1.55;1.08;;;21.60;66.30;;;;;;5026427;28;95794;-42
2022/02/09 02:27:25;;;;;;;0.95;0.80;;;21.50;66.80;;;;;;5027148;27;95677;-42
2022/02/09 02:30:30;;;;;;;0.80;0.80;;;21.40;66.90;;;;;;5023665;28;96675;-42
2022/02/09 02:33:25;;;;;;;1.55;0.77;;;21.40;67.20;;;;;;5021287;28;102230;-42
2022/02/09 02:36:21;;;;;;;2.20;1.10;;;21.40;67.40;;;;;;5007042;28;95740;-42
2022/02/09 02:39:11;;;;;;;3.70;0.93;;;21.60;67.70;;;;;;5000918;27;96680;-42
2022/02/09 02:45:43;;;;;;;1.23;0.65;;;21.80;66.60;;;;;;5017277;27;96559;-42
2022/02/09 02:56:47;;;;;;;1.30;0.73;;;21.80;66.90;;;;;;5012545;28;95990;-42
2022/02/09 02:59:25;;;;;;;3.00;1.00;;;22.00;66.70;;;;;;5020684;27;95932;-42
2022/02/09 03:08:23;;;;;;;1.73;0.80;;;22.10;66.10;;;;;;5021675;28;96113;-42
2022/02/09 03:13:31;;;;;;;0.80;0.57;;;22.20;65.70;;;;;;5021873;28;95732;-41
2022/02/09 03:16:09;;;;;;;2.60;0.80;;;22.20;65.90;;;;;;5012697;27;96496;-42
2022/02/09 03:21:47;;;;;;;1.05;0.77;;;22.10;66.20;;;;;;5020689;27;96082;-42
2022/02/09 03:24:34;;;;;;;1.60;0.77;;;22.30;66.10;;;;;;5022101;27;95697;-43
2022/02/09 03:46:51;;;;;;;1.42;0.80;;;22.50;65.30;;;;;;5018044;27;96051;-42
2022/02/09 03:57:03;;;;;;;;;;;22.70;65.10;;;;;;5020420;28;95765;-42
2022/02/09 03:59:35;;;;;;;1.20;0.68;;;22.60;65.00;;;;;;5021695;27;96189;-42
2022/02/09 04:02:07;;;;;;;1.88;1.10;;;22.80;65.10;;;;;;5014333;28;97956;-42
2022/02/09 04:04:38;;;;;;;1.05;0.75;;;22.70;64.80;;;;;;5020884;27;95811;-42
2022/02/09 04:07:11;;;;;;;3.42;0.93;;;22.80;65.00;;;;;;5021914;27;95935;-42
2022/02/09 04:09:47;;;;;;;0.77;0.60;;;22.80;64.90;;;;;;5003577;28;97092;-42
2022/02/09 04:14:54;;;;;;;2.65;0.80;;;22.80;64.90;;;;;;5014308;28;95764;-42
2022/02/09 04:20:33;;;;;;;1.60;0.90;;;22.80;64.90;;;;;;5022564;28;95701;-42
2022/02/09 04:36:03;;;;;;;2.35;1.42;;;22.90;64.90;;;;;;5015422;28;96442;-42
2022/02/09 04:37:45;;;;;;;1.23;0.40;;;22.90;64.80;;;;;;5015011;27;96109;-42
2022/02/09 04:40:42;;;;;;;1.23;0.90;;;23.00;65.00;;;;;;5017826;27;99733;-44
2022/02/09 04:46:25;;;;;;;1.52;0.82;;;23.00;65.00;;;;;;5014667;27;97113;-43
2022/02/09 04:54:25;;;;;;;1.05;0.80;;;23.10;64.70;;;;;;5019885;27;96149;-42
2022/02/09 04:57:12;;;;;;;4.00;0.88;;;23.10;63.30;;;;;;5021410;28;95945;-42
2022/02/09 05:02:38;;;;;;;0.93;0.90;;;22.80;59.60;;;;;;5015551;27;96209;-42
2022/02/09 05:20:12;;;;;;;3.92;0.93;;;22.50;57.80;;;;;;5020032;28;96584;-42
2022/02/09 05:27:50;;;;;;;1.50;0.70;;;22.60;57.00;;;;;;5020907;28;96496;-43
2022/02/09 05:30:22;;;;;;;1.80;0.70;;;22.60;56.60;;;;;;5012268;28;97867;-42
2022/02/09 05:32:53;;;;;;;0.73;0.70;;;22.60;56.80;;;;;;5018983;27;95328;-42
2022/02/09 05:35:25;;;;;;;0.73;0.50;;;22.60;56.50;;;;;;5000347;28;96182;-44
2022/02/09 05:37:58;;;;;;;1.25;0.75;;;22.60;56.30;;;;;;5012144;27;96506;-42
2022/02/09 05:40:30;;;;;;;1.52;0.68;;;22.60;55.90;;;;;;5012505;28;96843;-42
2022/02/09 05:43:01;;;;;;;1.75;0.60;;;22.60;55.50;;;;;;5008791;28;95941;-42
2022/02/09 05:46:41;;;;;;;0.52;0.52;;;22.60;55.60;;;;;;5014222;28;95426;-43
2022/02/09 05:51:25;;;;;;;0.93;0.60;;;22.60;55.20;;;;;;5016965;28;96647;-43
2022/02/09 05:54:37;;;;;;;;;;;;;;;;;;;;;
2022/02/09 05:57:09;;;;;;;1.40;1.08;;;22.50;54.70;;;;;;5016728;28;95808;-42
2022/02/09 05:59:39;;;;;;;1.15;1.00;;;22.50;54.50;;;;;;5021069;28;95659;-43
2022/02/09 06:02:10;;;;;;;1.88;0.80;;;22.40;54.30;;;;;;5013427;27;95580;-42
2022/02/09 06:04:40;;;;;;;2.10;0.65;;;22.40;54.90;;;;;;5019817;28;95698;-43
2022/02/09 06:07:13;;;;;;;0.55;0.55;;;22.40;54.30;;;;;;5017924;28;95906;-43
2022/02/09 06:09:44;;;;;;;4.03;1.05;;;22.40;54.50;;;;;;5019736;28;96148;-43
2022/02/09 06:12:31;;;;;;;0.73;0.70;;;22.40;54.70;;;;;;5019705;28;96851;-43
2022/02/09 06:15:30;;;;;;;2.05;0.90;;;22.40;54.80;;;;;;5018717;28;96169;-43
2022/02/09 06:20:44;;;;;;;4.82;1.10;;;22.40;55.00;;;;;;5020353;27;97922;-43
2022/02/09 06:23:15;;;;;;;2.40;1.05;;;22.40;55.00;;;;;;5018390;28;96166;-43
2022/02/09 06:25:48;;;;;;;1.02;0.93;;;22.50;54.90;;;;;;5018867;28;96282;-43
2022/02/09 06:28:19;;;;;;;2.35;1.00;;;22.40;55.10;;;;;;4999166;28;95412;-43
2022/02/09 06:30:50;;;;;;;3.63;1.05;;;22.40;55.00;;;;;;5014424;28;96420;-42
2022/02/09 06:33:22;;;;;;;4.00;0.88;;;22.40;54.80;;;;;;5016255;28;96470;-43
2022/02/09 06:35:53;;;;;;;3.20;0.80;;;22.40;55.00;;;;;;5021091;27;95298;-43
2022/02/09 06:38:27;;;;;;;2.70;0.95;;;22.40;54.80;;;;;;5019040;28;96687;-43
2022/02/09 06:40:58;;;;;;;1.08;0.98;;;22.40;55.00;;;;;;5017786;28;97364;-42
2022/02/09 06:43:30;;;;;;;2.00;1.00;;;22.40;55.00;;;;;;5018790;28;95964;-43
2022/02/09 06:46:02;;;;;;;3.75;1.02;;;22.40;55.10;;;;;;5015151;28;96230;-43
2022/02/09 06:48:34;;;;;;;2.30;0.95;;;22.40;55.10;;;;;;5019871;28;96155;-42
2022/02/09 06:51:12;;;;;;;0.93;0.75;;;22.40;55.10;;;;;;5020771;28;96600;-42
2022/02/09 06:53:58;;;;;;;2.53;0.90;;;22.40;55.00;;;;;;5018709;27;96487;-42
2022/02/09 06:56:56;;;;;;;2.65;0.80;;;22.40;55.10;;;;;;5017861;28;98005;-43
2022/02/09 06:59:30;;;;;;;4.30;1.17;;;22.30;55.20;;;;;;5017727;27;96659;-43
2022/02/09 07:02:06;;;;;;;2.63;1.20;;;22.40;55.10;;;;;;5011864;27;96175;-42
2022/02/09 07:04:37;;;;;;;3.20;1.15;;;22.40;55.30;;;;;;5018299;28;96557;-43
2022/02/09 07:07:08;;;;;;;3.92;1.10;;;22.30;55.60;;;;;;5018898;27;96829;-43
2022/02/09 07:09:40;;;;;;;1.77;1.00;;;22.30;56.60;;;;;;5015089;28;95802;-43
2022/02/09 07:12:09;;;;;;;;;;;22.40;57.80;;;;;;5002975;28;96413;-43
2022/02/09 07:14:40;;;;;;;1.88;1.00;;;22.40;58.30;;;;;;5007935;28;95846;-48
2022/02/09 07:17:12;;;;;;;2.67;1.25;;;22.50;58.80;;;;;;5011351;27;95830;-43
2022/02/09 07:20:05;;;;;;;2.42;1.00;;;22.40;59.00;;;;;;5016119;28;96059;-47
2022/02/09 07:22:38;;;;;;;6.50;1.50;;;22.50;59.70;;;;;;5016363;28;96133;-43
2022/02/09 07:25:15;;;;;;;6.50;1.58;;;22.50;60.30;;;;;;5017653;28;95934;-43
2022/02/09 07:27:52;;;;;;;2.60;1.10;;;22.50;60.60;;;;;;5017608;27;95927;-44
2022/02/09 07:30:26;;;;;;;3.25;0.93;;;22.50;62.10;;;;;;5010025;28;96110;-43
2022/02/09 07:33:00;;;;;;;5.18;1.48;;;22.60;62.50;;;;;;5015794;28;102463;-48
2022/02/09 07:35:31;;;;;;;3.60;1.67;;;22.60;63.10;;;;;;5017613;27;95873;-43
2022/02/09 07:38:03;;;;;;;2.65;1.00;;;22.60;63.60;;;;;;5018655;27;95749;-43
2022/02/09 07:40:34;;;;;;;4.72;1.40;;;22.60;64.40;;;;;;5020223;28;96129;-43
2022/02/09 07:43:11;;;;;;;;;;;22.60;64.70;;;;;;5021695;28;96217;-43
2022/02/09 07:46:16;;;;;;;3.63;1.55;;;22.60;65.20;;;;;;4995232;28;96251;-43
2022/02/09 07:54:01;;;;;;;4.75;1.88;;;22.70;66.10;;;;;;5021211;28;96611;-43
2022/02/09 07:56:35;;;;;;;2.95;1.55;;;22.70;66.40;;;;;;5022396;27;96438;-46
2022/02/09 07:59:09;;;;;;;2.63;1.23;;;22.70;66.50;;;;;;5021969;27;95969;-43
2022/02/09 08:01:41;;;;;;;5.60;2.15;;;22.70;66.50;;;;;;5015188;27;96041;-43
2022/02/09 08:04:12;;;;;;;2.95;1.55;;;22.80;67.30;;;;;;5020469;28;96434;-43
2022/02/09 08:06:43;;;;;;;3.22;1.92;;;22.80;67.70;;;;;;5021341;28;96192;-43
2022/02/09 08:09:39;;;;;;;3.97;1.70;;;22.80;68.40;;;;;;5022723;28;95657;-43
2022/02/09 08:20:27;;;;;;;4.50;1.95;;;22.90;70.20;;;;;;5020286;28;101825;-43
2022/02/09 08:27:16;;;;;;;4.72;2.10;;;23.00;71.70;;;;;;4993367;28;97374;-43
2022/02/09 08:35:02;;;;;;;8.35;2.22;;;22.90;70.10;;;;;;5022033;27;96723;-42
2022/02/09 08:37:33;;;;;;;5.90;1.75;;;22.90;69.50;;;;;;5017212;28;97038;-42
2022/02/09 08:40:06;;;;;;;5.68;1.83;;;22.80;68.80;;;;;;5021247;27;96615;-43
2022/02/09 08:42:38;;;;;;;4.53;1.90;;;22.80;68.10;;;;;;5021707;28;95842;-43
2022/02/09 08:45:10;;;;;;;4.47;1.98;;;22.80;67.70;;;;;;5022235;27;95902;-42
2022/02/09 08:47:53;;;;;;;7.28;2.05;;;22.80;66.80;;;;;;5019952;28;102259;-42
2022/02/09 08:50:27;;;;;;;5.63;1.58;;;22.70;66.80;;;;;;5020169;27;96496;-42
2022/02/09 08:52:59;;;;;;;7.25;1.75;;;22.70;66.60;;;;;;5019898;28;95729;-43
2022/02/09 08:55:30;;;;;;;4.13;1.88;;;22.70;66.60;;;;;;5017752;28;95933;-43
2022/02/09 08:58:02;;;;;;;3.92;1.63;;;22.70;66.50;;;;;;5020582;27;97088;-43
2022/02/09 09:00:35;;;;;;;4.10;1.60;;;22.70;66.30;;;;;;5015621;28;96495;-43
2022/02/09 09:03:46;;;;;;;6.20;2.33;;;22.60;66.00;;;;;;5019816;28;95870;-43
2022/02/09 09:06:03;;;;;;;8.95;3.28;;;22.60;66.20;;;;;;5012110;28;96650;-43
2022/02/09 09:09:24;;;;;;;8.85;2.38;;;22.60;66.20;;;;;;5019543;28;96129;-41
2022/02/09 10:34:36;;;;;;;11.48;3.35;;;20.90;74.60;;;;;;5025204;28;97192;-41
2022/02/09 10:37:08;;;;;;;12.27;2.75;;;21.00;75.50;;;;;;5028375;28;96026;-40
2022/02/09 10:40:01;;;;;;;12.35;2.92;;;20.90;75.00;;;;;;5026124;28;97091;-40
2022/02/09 10:42:47;;;;;;;14.95;3.70;;;20.70;74.70;;;;;;5021123;28;95688;-40
2022/02/09 10:45:47;;;;;;;13.05;3.20;;;20.60;75.40;;;;;;5019195;27;95642;-41
2022/02/09 10:48:39;;;;;;;18.65;4.22;;;20.40;76.40;;;;;;5020994;28;96107;-41
2022/02/09 10:54:12;;;;;;;11.10;2.58;;;20.30;78.00;;;;;;5021214;28;95387;-41
2022/02/09 10:56:49;;;;;;;17.58;3.97;;;20.30;78.00;;;;;;5023813;28;95555;-40
2022/02/09 10:59:24;;;;;;;14.35;3.47;;;20.40;78.00;;;;;;5022891;28;95745;-41
2022/02/09 11:02:01;;;;;;;10.93;2.45;;;20.50;77.20;;;;;;5017257;27;95999;-41
2022/02/09 11:04:33;;;;;;;17.40;3.28;;;20.40;77.90;;;;;;5027162;27;96002;-41
2022/02/09 11:07:03;;;;;;;13.30;4.05;;;20.40;77.50;;;;;;5022298;28;95334;-41
2022/02/09 11:09:35;;;;;;;;;;;20.50;77.80;;;;;;5024689;28;95403;-40
2022/02/09 11:12:07;;;;;;;15.60;3.72;;;20.50;77.70;;;;;;5025312;28;97526;-40
2022/02/09 11:14:39;;;;;;;;;;;20.50;77.40;;;;;;5024274;27;95825;-40
2022/02/09 11:17:11;;;;;;;13.55;3.00;;;20.50;78.00;;;;;;5020892;28;95437;-41
2022/02/09 11:19:45;;;;;;;14.80;3.10;;;20.50;77.90;;;;;;5027782;28;96018;-40
2022/02/09 11:22:22;;;;;;;13.95;2.95;;;20.40;77.50;;;;;;5027225;28;95380;-40
2022/02/09 11:25:19;;;;;;;14.80;3.38;;;20.50;77.60;;;;;;5027193;27;96060;-41
2022/02/09 11:28:24;;;;;;;16.48;3.65;;;20.60;77.20;;;;;;5025355;27;95563;-41
2022/02/09 11:31:32;;;;;;;14.52;2.92;;;20.60;77.40;;;;;;5020379;28;97800;-39
2022/02/09 11:34:08;;;;;;;17.50;2.80;;;20.60;77.60;;;;;;5024083;28;96570;-40
2022/02/09 11:37:03;;;;;;;14.40;3.50;;;20.60;77.60;;;;;;5027644;28;96079;-40
2022/02/09 11:39:49;;;;;;;10.15;3.00;;;20.60;77.60;;;;;;5023781;28;96675;-41
2022/02/09 12:08:49;;;;;;;11.85;2.50;;;20.00;78.40;;;;;;5024551;28;95579;-40
2022/02/09 12:09:47;;;;;;;11.00;3.38;;;20.00;78.90;;;;;;5026964;27;96496;-40
2022/02/09 12:12:23;;;;;;;14.38;3.40;;;19.90;78.50;;;;;;5026985;28;97189;-41
2022/02/09 12:15:01;;;;;;;14.48;3.00;;;19.90;78.70;;;;;;5027096;28;95402;-41
2022/02/09 12:25:47;;;;;;;14.38;3.28;;;20.10;78.10;;;;;;5026252;27;96112;-40
2022/02/09 12:28:21;;;;;;;9.95;2.50;;;20.00;78.50;;;;;;5024065;28;95783;-41
2022/02/09 12:31:07;;;;;;;9.48;2.90;;;19.80;78.70;;;;;;5019171;28;96753;-40
2022/02/09 12:33:47;;;;;;;12.75;3.15;;;19.70;79.30;;;;;;5027734;28;95679;-40
2022/02/09 12:36:28;;;;;;;14.98;2.97;;;19.80;79.50;;;;;;5028613;28;95671;-40
2022/02/09 12:39:04;;;;;;;15.32;2.58;;;19.70;79.50;;;;;;5030811;27;95443;-40
2022/02/09 12:41:35;;;;;;;12.45;2.75;;;19.60;79.70;;;;;;4997288;27;98554;-39
2022/02/09 12:44:08;;;;;;;11.57;2.97;;;19.50;80.20;;;;;;5021999;27;95660;-39
2022/02/09 12:46:44;;;;;;;14.13;3.75;;;19.40;80.80;;;;;;5012762;27;96040;-39
2022/02/09 12:49:19;;;;;;;9.73;2.55;;;19.30;81.90;;;;;;5019553;28;96368;-39
2022/02/09 12:51:51;;;;;;;12.95;3.15;;;19.40;82.10;;;;;;4998465;28;96929;-40
2022/02/09 12:54:23;;;;;;;11.57;3.58;;;19.30;82.10;;;;;;5021344;28;97549;-37
2022/02/09 12:56:56;;;;;;;9.02;2.60;;;19.70;82.30;;;;;;5021480;27;95273;-38
2022/02/09 12:59:28;;;;;;;8.25;2.85;;;20.10;80.80;;;;;;5021686;27;95995;-37
2022/02/09 13:01:59;;;;;;;10.10;2.25;;;20.40;79.30;;;;;;5013454;27;96282;-40
2022/02/09 13:04:36;;;;;;;9.38;3.55;;;20.20;79.50;;;;;;5018456;28;95803;-40
2022/02/09 13:07:07;;;;;;;10.63;2.75;;;20.30;79.10;;;;;;5020697;28;96239;-40
2022/02/09 13:09:39;;;;;;;12.77;2.78;;;20.40;78.50;;;;;;5021855;28;96002;-40
2022/02/09 13:12:09;;;;;;;7.63;2.40;;;20.40;78.30;;;;;;5021267;28;98264;-39
2022/02/09 13:14:46;;;;;;;9.00;2.75;;;20.70;78.40;;;;;;5020905;28;95777;-38
2022/02/09 13:26:02;;;;;;;8.27;2.40;;;21.20;75.30;;;;;;5020390;28;96440;-41
2022/02/09 14:07:08;;;;;;;12.88;2.65;;;20.50;75.40;;;;;;5021474;28;95846;-40
2022/02/09 14:15:21;;;;;;;13.13;2.40;;;20.30;76.40;;;;;;5019231;27;97148;-35
2022/02/09 14:51:43;;;;;;;9.57;2.90;;;21.00;72.80;;;;;;5030999;27;96064;-42
2022/02/09 14:57:03;;;;;;;7.03;2.53;;;20.90;72.60;;;;;;5028889;28;95830;-43
2022/02/09 15:10:44;;;;;;;9.70;2.67;;;20.70;72.80;;;;;;5033997;28;95942;-42
2022/02/09 15:22:01;;;;;;;6.55;2.25;;;20.60;73.40;;;;;;5035436;27;95882;-42
2022/02/09 15:24:40;;;;;;;12.80;2.80;;;20.50;73.60;;;;;;5034526;28;95825;-44
2022/02/09 15:27:20;;;;;;;8.10;2.47;;;20.40;73.70;;;;;;5033531;27;96713;-42
2022/02/09 15:29:53;;;;;;;8.57;2.13;;;20.40;74.20;;;;;;5012950;28;95904;-42
2022/02/09 15:32:33;;;;;;;9.45;2.17;;;20.40;74.40;;;;;;5017992;28;95511;-42
2022/02/09 15:38:02;;;;;;;5.30;1.70;;;20.40;74.50;;;;;;5032762;27;96159;-43
2022/02/09 15:40:50;;;;;;;6.55;1.90;;;20.40;74.60;;;;;;5025409;28;95505;-42
2022/02/09 15:43:56;;;;;;;10.07;3.15;;;20.40;74.80;;;;;;5029940;28;95336;-42
2022/02/09 15:58:18;;;;;;;8.85;2.42;;;20.40;74.90;;;;;;5026592;27;95773;-42
2022/02/09 16:09:14;;;;;;;7.70;1.98;;;20.30;75.20;;;;;;5027693;28;95711;-42
2022/02/09 16:23:01;;;;;;;5.47;1.70;;;20.30;75.60;;;;;;5028934;28;96997;-42
2022/02/09 16:44:30;;;;;;;7.05;1.90;;;20.10;76.10;;;;;;4983193;28;96289;-42
2022/02/09 16:47:04;;;;;;;9.23;2.25;;;20.20;76.30;;;;;;5023241;27;98752;-42
2022/02/09 16:49:49;;;;;;;9.20;2.63;;;20.10;76.20;;;;;;5029500;28;95836;-43
2022/02/09 16:52:27;;;;;;;8.63;2.20;;;20.10;76.30;;;;;;5027896;28;96053;-43
2022/02/09 16:55:57;;;;;;;11.55;3.17;;;20.10;76.40;;;;;;5028075;28;96718;-42
2022/02/09 17:20:02;;;;;;;13.43;2.60;;;20.10;77.10;;;;;;5016781;28;95622;-42
2022/02/09 17:22:37;;;;;;;8.38;2.17;;;20.10;77.10;;;;;;5025100;28;95855;-42
2022/02/09 17:25:10;;;;;;;11.48;2.58;;;20.10;77.20;;;;;;5035509;27;95948;-42
2022/02/09 17:27:46;;;;;;;7.18;1.98;;;20.10;77.20;;;;;;5028005;28;96075;-44
2022/02/09 17:58:25;;;;;;;13.70;2.42;;;20.00;77.60;;;;;;5028186;28;95440;-42
2022/02/09 18:01:00;;;;;;;8.65;2.30;;;20.00;77.60;;;;;;5025347;27;96321;-42
2022/02/09 18:03:32;;;;;;;5.15;2.03;;;20.00;77.60;;;;;;5026072;27;95812;-42
2022/02/09 18:09:09;;;;;;;9.50;2.55;;;20.00;77.50;;;;;;5027862;28;95581;-42
2022/02/09 18:11:51;;;;;;;6.72;2.50;;;20.00;77.60;;;;;;5027833;28;96139;-42
2022/02/09 18:31:12;;;;;;;9.53;3.40;;;20.00;77.90;;;;;;5022840;28;95422;-42
2022/02/09 18:40:43;;;;;;;7.15;2.03;;;19.90;78.10;;;;;;5026715;28;97685;-42
2022/02/09 18:42:51;;;;;;;11.77;2.67;;;19.90;78.20;;;;;;5027697;28;95755;-42
2022/02/09 18:45:52;;;;;;;9.65;2.47;;;19.90;78.30;;;;;;5022133;27;96201;-43
2022/02/09 19:05:47;;;;;;;11.65;2.85;;;19.90;78.10;;;;;;5022443;28;95275;-44
2022/02/09 19:29:58;;;;;;;11.10;2.45;;;19.90;78.30;;;;;;5024847;28;96445;-42
2022/02/09 19:52:16;;;;;;;11.02;2.30;;;19.90;78.10;;;;;;4960198;28;95910;-43
2022/02/09 19:57:35;;;;;;;11.27;2.50;;;19.90;77.90;;;;;;4949171;28;95425;-42
2022/02/09 20:00:07;;;;;;;6.85;2.25;;;19.90;78.00;;;;;;4956335;28;95452;-42
2022/02/09 20:02:45;;;;;;;11.77;2.80;;;19.90;78.00;;;;;;4947905;28;96228;-42
2022/02/09 20:05:22;;;;;;;11.13;2.80;;;19.90;78.00;;;;;;4945146;28;97452;-42
2022/02/09 20:07:57;;;;;;;9.15;2.50;;;19.90;78.00;;;;;;4948074;28;95658;-42
2022/02/09 20:10:43;;;;;;;11.13;2.60;;;19.90;77.90;;;;;;4958789;28;95447;-43
2022/02/09 20:13:13;;;;;;;8.90;2.67;;;19.90;78.00;;;;;;4954939;28;95904;-42
2022/02/09 20:15:43;;;;;;;15.20;3.40;;;19.90;77.90;;;;;;4945971;28;95463;-42
2022/02/09 20:18:15;;;;;;;11.23;3.00;;;19.90;78.00;;;;;;4947948;28;95936;-43
2022/02/09 20:20:47;;;;;;;13.10;3.17;;;19.90;77.90;;;;;;4973848;28;95915;-43
2022/02/09 20:23:17;;;;;;;9.90;2.78;;;19.90;77.90;;;;;;5029458;28;96449;-42
2022/02/09 20:25:49;;;;;;;10.20;2.67;;;19.90;77.90;;;;;;5025083;27;95631;-42
2022/02/09 20:28:23;;;;;;;12.25;3.22;;;19.90;77.90;;;;;;5030024;28;95560;-43
2022/02/09 20:31:03;;;;;;;9.18;2.45;;;19.90;78.00;;;;;;5021573;27;95706;-43
2022/02/09 20:33:40;;;;;;;12.57;3.05;;;19.90;78.00;;;;;;5020321;28;96473;-47
2022/02/09 20:36:13;;;;;;;15.23;3.45;;;19.90;77.90;;;;;;5027618;28;95831;-42
2022/02/09 20:38:47;;;;;;;6.35;2.40;;;19.90;78.10;;;;;;5027621;28;95994;-42
2022/02/09 20:41:19;;;;;;;11.10;2.40;;;19.90;78.00;;;;;;5022872;28;95277;-42
2022/02/09 20:44:04;;;;;;;10.55;4.10;;;19.90;78.10;;;;;;5020400;28;97101;-42
2022/02/09 20:46:36;;;;;;;9.75;2.65;;;19.90;78.00;;;;;;5002906;28;97646;-42
2022/02/09 20:49:07;;;;;;;5.45;1.90;;;19.90;77.90;;;;;;5021714;28;95833;-41
2022/02/09 20:51:37;;;;;;;5.55;2.35;;;19.90;77.70;;;;;;5024071;28;95957;-42
2022/02/09 20:54:09;;;;;;;10.05;3.13;;;20.00;77.40;;;;;;5027951;28;96933;-42
2022/02/09 20:56:40;;;;;;;8.00;2.40;;;20.00;77.80;;;;;;5025159;28;95850;-42
2022/02/09 20:59:14;;;;;;;9.70;2.90;;;20.00;77.60;;;;;;5012134;28;95878;-44
2022/02/09 21:01:58;;;;;;;7.45;2.10;;;20.00;77.60;;;;;;5021976;28;95956;-42
2022/02/09 21:04:31;;;;;;;10.85;2.35;;;20.00;77.40;;;;;;5029520;28;96090;-43
2022/02/09 21:10:16;;;;;;;9.52;2.25;;;20.00;77.30;;;;;;5012079;28;95471;-44
2022/02/09 21:12:54;;;;;;;8.57;2.97;;;20.00;77.40;;;;;;5025317;27;95841;-42
2022/02/09 21:15:47;;;;;;;5.75;2.08;;;20.10;77.70;;;;;;5024066;27;96062;-43
2022/02/09 21:18:38;;;;;;;9.45;2.63;;;20.00;77.40;;;;;;5024160;28;95815;-42
2022/02/09 21:21:38;;;;;;;8.20;3.00;;;20.00;77.90;;;;;;5026155;28;95741;-42
2022/02/09 21:54:24;;;;;;;10.57;3.75;;;20.30;77.80;;;;;;5020630;28;95932;-41
2022/02/09 21:56:59;;;;;;;8.93;2.58;;;20.40;77.40;;;;;;5019449;28;96212;-41
2022/02/09 21:59:45;;;;;;;7.60;2.53;;;20.40;77.10;;;;;;5016195;28;96784;-41
2022/02/09 22:27:45;;;;;;;7.68;2.35;;;20.60;75.80;;;;;;5018213;27;96517;-41
2022/02/09 22:47:34;;;;;;;5.15;1.67;;;20.90;74.90;;;;;;5010433;27;96497;-41
2022/02/09 22:55:01;;;;;;;6.10;2.03;;;21.00;75.00;;;;;;5018634;27;97742;-42
2022/02/09 22:57:43;;;;;;;4.88;2.00;;;21.00;75.00;;;;;;5019888;28;95771;-40
2022/02/09 23:00:37;;;;;;;7.13;2.10;;;21.10;74.70;;;;;;5018210;28;96594;-42
2022/02/09 23:03:10;;;;;;;10.05;2.63;;;21.10;74.50;;;;;;5018645;27;96030;-49
2022/02/09 23:05:59;;;;;;;9.35;2.50;;;21.10;74.60;;;;;;5016106;28;96578;-41
2022/02/09 23:14:08;;;;;;;7.72;2.58;;;21.20;68.80;;;;;;5023253;27;96002;-42
